createdAt,value
2017-09-20T00:01:34.916Z,96.80
2017-09-20T00:04:02.428Z,97.00
2017-09-20T00:06:30.904Z,96.40
2017-09-20T00:08:58.428Z,96.40
2017-09-20T00:11:25.956Z,96.50
2017-09-20T00:13:53.530Z,96.80
2017-09-20T00:16:21.039Z,96.70
2017-09-20T00:18:48.581Z,96.80
2017-09-20T00:21:16.495Z,97.00
2017-09-20T00:23:44.047Z,97.00
2017-09-20T00:26:11.955Z,97.00
2017-09-20T00:28:40.687Z,97.10
2017-09-20T00:31:08.221Z,97.00
2017-09-20T00:33:35.780Z,97.10
2017-09-20T00:36:03.317Z,97.20
2017-09-20T00:38:30.835Z,97.30
2017-09-20T00:40:59.515Z,97.30
2017-09-20T00:43:27.023Z,97.10
2017-09-20T00:45:54.564Z,97.00
2017-09-20T00:48:22.092Z,97.00
2017-09-20T00:50:49.620Z,97.00
2017-09-20T00:53:17.141Z,97.10
2017-09-20T00:55:44.656Z,97.30
2017-09-20T00:58:12.227Z,97.20
2017-09-20T01:00:40.737Z,97.30
2017-09-20T01:03:08.267Z,97.20
2017-09-20T01:05:35.799Z,97.20
2017-09-20T01:08:03.323Z,97.20
2017-09-20T01:10:30.839Z,97.20
2017-09-20T01:12:59.521Z,96.90
2017-09-20T01:15:27.052Z,96.90
2017-09-20T01:17:54.588Z,97.00
2017-09-20T01:20:33.971Z,97.10
2017-09-20T01:23:13.386Z,97.20
2017-09-20T01:25:40.912Z,97.20
2017-09-20T01:28:08.488Z,96.80
2017-09-20T01:30:36.019Z,96.70
2017-09-20T01:33:03.531Z,96.70
2017-09-20T01:35:31.103Z,96.70
2017-09-20T01:37:58.699Z,96.70
2017-09-20T01:40:26.356Z,96.60
2017-09-20T01:42:54.268Z,96.60
2017-09-20T01:45:21.807Z,96.50
2017-09-20T01:47:49.327Z,96.10
2017-09-20T01:50:16.863Z,96.00
2017-09-20T01:52:44.385Z,96.00
2017-09-20T01:55:11.933Z,96.30
2017-09-20T01:57:40.451Z,96.10
2017-09-20T02:00:08.009Z,96.10
2017-09-20T02:02:35.539Z,96.30
2017-09-20T02:05:03.050Z,96.70
2017-09-20T02:07:30.599Z,97.00
2017-09-20T02:09:58.546Z,96.70
2017-09-20T02:12:26.080Z,96.70
2017-09-20T02:14:53.595Z,96.30
2017-09-20T02:17:21.127Z,96.50
2017-09-20T02:19:48.687Z,96.70
2017-09-20T02:22:16.227Z,95.80
2017-09-20T02:24:43.759Z,95.80
2017-09-20T02:27:11.699Z,96.10
2017-09-20T02:29:40.341Z,96.10
2017-09-20T02:32:07.851Z,95.90
2017-09-20T02:34:35.779Z,95.70
2017-09-20T02:37:03.309Z,95.70
2017-09-20T02:39:31.152Z,96.30
2017-09-20T02:41:59.037Z,96.80
2017-09-20T02:44:26.580Z,97.20
2017-09-20T02:46:57.096Z,97.20
2017-09-20T02:49:24.641Z,97.20
2017-09-20T02:51:52.174Z,97.20
2017-09-20T02:54:20.161Z,96.80
2017-09-20T02:56:47.684Z,96.80
2017-09-20T02:59:15.260Z,96.70
2017-09-20T03:01:42.795Z,97.00
2017-09-20T03:04:11.617Z,97.60
2017-09-20T03:06:40.115Z,97.50
2017-09-20T03:09:07.645Z,97.50
2017-09-20T03:11:35.600Z,97.20
2017-09-20T03:14:03.116Z,97.20
2017-09-20T03:16:31.054Z,97.20
2017-09-20T03:18:58.571Z,97.20
2017-09-20T03:21:26.119Z,97.40
2017-09-20T03:23:53.634Z,97.20
2017-09-20T03:26:21.178Z,97.20
2017-09-20T03:28:48.721Z,97.00
2017-09-20T03:31:16.647Z,96.70
2017-09-20T03:33:44.183Z,96.70
2017-09-20T03:36:11.707Z,96.70
2017-09-20T03:38:39.967Z,96.90
2017-09-20T03:41:07.483Z,96.90
2017-09-20T03:43:35.017Z,97.20
2017-09-20T03:46:03.668Z,97.40
2017-09-20T03:48:31.206Z,97.50
2017-09-20T03:50:58.733Z,97.70
2017-09-20T03:53:26.292Z,97.90
2017-09-20T03:55:53.819Z,97.90
2017-09-20T03:58:21.351Z,97.90
2017-09-20T04:00:48.893Z,98.00
2017-09-20T04:03:16.418Z,98.20
2017-09-20T04:05:44.349Z,97.70
2017-09-20T04:08:11.864Z,97.70
2017-09-20T04:10:40.342Z,97.70
2017-09-20T04:13:07.868Z,97.80
2017-09-20T04:15:35.395Z,97.90
2017-09-20T04:18:03.310Z,98.00
2017-09-20T04:20:30.854Z,98.00
2017-09-20T04:22:58.375Z,98.00
2017-09-20T04:25:25.926Z,97.90
2017-09-20T04:27:53.435Z,98.00
2017-09-20T04:30:21.350Z,97.80
2017-09-20T04:32:48.893Z,97.80
2017-09-20T04:35:16.414Z,97.90
2017-09-20T04:37:43.955Z,97.90
2017-09-20T04:40:11.564Z,98.00
2017-09-20T04:42:40.076Z,98.10
2017-09-20T04:45:07.591Z,98.10
2017-09-20T04:47:35.147Z,98.10
2017-09-20T04:50:02.692Z,98.10
2017-09-20T04:52:30.227Z,98.20
2017-09-20T04:54:57.765Z,98.20
2017-09-20T04:57:25.322Z,98.10
2017-09-20T04:59:52.836Z,98.10
2017-09-20T05:02:20.395Z,98.10
2017-09-20T05:04:48.304Z,98.30
2017-09-20T05:07:16.231Z,98.30
2017-09-20T05:09:43.764Z,98.30
2017-09-20T05:12:11.287Z,98.30
2017-09-20T05:14:39.544Z,98.30
2017-09-20T05:17:07.074Z,98.30
2017-09-20T05:19:34.615Z,98.30
2017-09-20T05:22:02.149Z,98.40
2017-09-20T05:24:29.684Z,98.40
2017-09-20T05:26:57.216Z,98.30
2017-09-20T05:29:24.779Z,98.40
2017-09-20T05:31:52.329Z,98.50
2017-09-20T05:34:19.870Z,98.40
2017-09-20T05:36:47.486Z,98.40
2017-09-20T05:39:15.045Z,98.40
2017-09-20T05:41:42.661Z,98.50
2017-09-20T05:44:11.457Z,98.50
2017-09-20T05:46:38.999Z,98.50
2017-09-20T05:49:06.562Z,98.40
2017-09-20T05:51:34.207Z,98.70
2017-09-20T05:54:01.730Z,99.00
2017-09-20T05:56:29.683Z,99.20
2017-09-20T05:58:57.196Z,99.20
2017-09-20T06:01:24.711Z,99.40
2017-09-20T06:03:53.153Z,99.50
2017-09-20T06:06:20.696Z,99.50
2017-09-20T06:08:48.233Z,99.70
2017-09-20T06:11:15.751Z,99.60
2017-09-20T06:13:43.284Z,99.50
2017-09-20T06:16:11.252Z,99.50
2017-09-20T06:18:39.515Z,99.70
2017-09-20T06:21:07.425Z,99.90
2017-09-20T06:23:34.948Z,99.80
2017-09-20T06:26:02.487Z,99.90
2017-09-20T06:28:30.046Z,99.90
2017-09-20T06:30:57.628Z,99.70
2017-09-20T06:33:25.158Z,99.80
2017-09-20T06:35:52.700Z,99.80
2017-09-20T06:38:20.226Z,99.80
2017-09-20T06:40:47.796Z,99.90
2017-09-20T06:43:15.332Z,99.90
2017-09-20T06:45:42.887Z,99.90
2017-09-20T06:48:12.139Z,99.80
2017-09-20T06:50:40.580Z,99.80
2017-09-20T06:53:08.124Z,99.90
2017-09-20T06:55:35.661Z,99.90
2017-09-20T06:58:03.209Z,99.90
2017-09-20T07:00:30.735Z,99.90
2017-09-20T07:02:58.331Z,99.90
2017-09-20T07:05:25.856Z,99.90
2017-09-20T07:07:53.436Z,99.90
2017-09-20T07:10:20.970Z,99.90
2017-09-20T07:12:48.507Z,99.90
2017-09-20T07:15:16.080Z,99.90
2017-09-20T07:17:43.600Z,99.90
2017-09-20T07:20:11.588Z,99.90
2017-09-20T07:22:40.081Z,99.90
2017-09-20T07:25:07.652Z,99.90
2017-09-20T07:27:35.175Z,99.90
2017-09-20T07:30:02.737Z,99.90
2017-09-20T07:32:30.326Z,99.90
2017-09-20T07:34:58.275Z,99.90
2017-09-20T07:37:25.816Z,99.90
2017-09-20T07:39:53.348Z,99.90
2017-09-20T07:42:21.279Z,99.90
2017-09-20T07:44:48.792Z,99.90
2017-09-20T07:47:16.342Z,99.90
2017-09-20T07:49:43.959Z,99.90
2017-09-20T07:52:11.471Z,99.90
2017-09-20T07:54:40.160Z,99.90
2017-09-20T07:57:07.690Z,99.90
2017-09-20T07:59:35.248Z,99.90
2017-09-20T08:02:02.771Z,99.90
2017-09-20T08:04:30.322Z,99.90
2017-09-20T08:06:58.290Z,99.90
2017-09-20T08:09:25.833Z,99.90
2017-09-20T08:11:53.359Z,99.90
2017-09-20T08:14:21.288Z,99.90
2017-09-20T08:16:48.828Z,99.90
2017-09-20T08:19:16.361Z,99.90
2017-09-20T08:21:43.925Z,99.90
2017-09-20T08:24:11.470Z,99.90
2017-09-20T08:26:39.051Z,99.90
2017-09-20T08:29:06.603Z,99.90
2017-09-20T08:31:34.175Z,99.90
2017-09-20T08:34:01.765Z,99.90
2017-09-20T08:36:29.766Z,99.90
2017-09-20T08:38:57.351Z,99.90
2017-09-20T08:41:24.961Z,99.90
2017-09-20T08:43:54.772Z,99.90
2017-09-20T08:46:31.270Z,99.90
2017-09-20T08:49:59.133Z,99.90
2017-09-20T08:53:08.652Z,99.90
2017-09-20T08:55:39.203Z,99.90
2017-09-20T08:58:13.093Z,99.90
2017-09-20T09:00:46.856Z,99.90
2017-09-20T09:03:14.545Z,99.90
2017-09-20T09:05:45.625Z,99.90
2017-09-20T09:08:19.383Z,99.90
2017-09-20T09:10:48.380Z,99.90
2017-09-20T09:13:16.854Z,99.90
2017-09-20T09:16:16.835Z,99.90
2017-09-20T09:21:55.313Z,99.90
2017-09-20T09:24:22.834Z,99.90
2017-09-20T09:26:50.803Z,99.90
2017-09-20T09:29:18.331Z,99.90
2017-09-20T09:31:45.863Z,99.90
2017-09-20T09:34:13.406Z,99.90
2017-09-20T09:36:40.935Z,99.90
2017-09-20T09:39:08.562Z,99.90
2017-09-20T09:41:37.440Z,99.90
2017-09-20T09:44:05.603Z,99.90
2017-09-20T09:46:33.142Z,99.90
2017-09-20T09:49:00.715Z,99.90
2017-09-20T09:51:28.300Z,99.90
2017-09-20T09:53:55.834Z,99.90
2017-09-20T09:56:23.378Z,99.60
2017-09-20T09:58:51.308Z,99.40
2017-09-20T10:01:18.859Z,99.40
2017-09-20T10:03:46.791Z,98.80
2017-09-20T10:06:14.675Z,98.80
2017-09-20T10:08:42.218Z,99.20
2017-09-20T10:11:09.789Z,99.40
2017-09-20T10:13:37.723Z,98.80
2017-09-20T10:16:06.078Z,98.90
2017-09-20T10:18:33.629Z,99.00
2017-09-20T10:21:01.169Z,99.20
2017-09-20T10:23:28.735Z,99.00
2017-09-20T10:25:56.268Z,98.90
2017-09-20T10:28:23.816Z,98.60
2017-09-20T10:30:51.349Z,98.60
2017-09-20T10:33:18.912Z,99.20
2017-09-20T10:35:46.537Z,99.70
2017-09-20T10:38:14.078Z,97.80
2017-09-20T10:40:41.630Z,98.50
2017-09-20T10:43:09.159Z,98.40
2017-09-20T10:45:36.792Z,98.70
2017-09-20T10:48:05.160Z,97.70
2017-09-20T10:50:32.709Z,97.10
2017-09-20T10:53:00.234Z,97.20
2017-09-20T10:55:27.809Z,97.50
2017-09-20T10:57:55.727Z,97.30
2017-09-20T11:00:23.255Z,97.30
2017-09-20T11:02:50.827Z,96.90
2017-09-20T11:05:18.350Z,97.20
2017-09-20T11:07:45.904Z,98.10
2017-09-20T11:10:13.443Z,97.40
2017-09-20T11:12:41.012Z,97.80
2017-09-20T11:15:08.548Z,97.40
2017-09-20T11:17:37.245Z,97.80
2017-09-20T11:20:05.924Z,97.70
2017-09-20T11:22:33.860Z,97.20
2017-09-20T11:25:01.429Z,97.20
2017-09-20T11:27:28.954Z,98.00
2017-09-20T11:29:56.528Z,98.60
2017-09-20T11:32:24.452Z,97.80
2017-09-20T11:34:52.002Z,97.80
2017-09-20T11:37:19.539Z,96.50
2017-09-20T11:39:47.095Z,95.60
2017-09-20T11:42:15.020Z,95.70
2017-09-20T11:47:35.220Z,95.10
2017-09-20T11:50:02.932Z,94.70
2017-09-20T11:52:30.619Z,94.70
2017-09-20T11:54:58.450Z,94.50
2017-09-20T11:57:26.027Z,93.60
2017-09-20T11:59:53.641Z,93.90
2017-09-20T12:02:21.318Z,93.50
2017-09-20T12:04:48.920Z,91.90
2017-09-20T12:07:16.558Z,93.90
2017-09-20T12:09:47.223Z,94.10
2017-09-20T12:12:14.802Z,93.70
2017-09-20T12:14:42.798Z,93.30
2017-09-20T12:17:10.390Z,93.20
2017-09-20T12:19:38.033Z,91.00
2017-09-20T12:22:05.567Z,92.20
2017-09-20T12:24:33.168Z,93.40
2017-09-20T12:27:00.744Z,91.10
2017-09-20T12:29:28.607Z,89.10
2017-09-20T12:31:56.607Z,87.70
2017-09-20T12:34:24.211Z,87.70
2017-09-20T12:36:51.791Z,89.40
2017-09-20T12:39:19.542Z,92.70
2017-09-20T12:41:50.866Z,91.90
2017-09-20T12:44:18.464Z,89.90
2017-09-20T12:46:48.722Z,90.30
2017-09-20T12:49:16.334Z,88.30
2017-09-20T12:51:44.332Z,88.00
2017-09-20T12:54:11.911Z,88.00
2017-09-20T12:56:39.471Z,89.00
2017-09-20T12:59:07.023Z,89.20
2017-09-20T13:01:34.589Z,90.50
2017-09-20T13:04:02.507Z,92.10
2017-09-20T13:06:30.017Z,92.10
2017-09-20T13:08:57.604Z,92.00
2017-09-20T13:11:25.130Z,91.10
2017-09-20T13:13:52.679Z,89.60
2017-09-20T13:16:20.281Z,89.60
2017-09-20T13:18:47.816Z,88.10
2017-09-20T13:21:15.341Z,85.50
2017-09-20T13:23:42.928Z,87.40
2017-09-20T13:26:10.478Z,85.80
2017-09-20T13:28:39.931Z,83.70
2017-09-20T13:31:07.870Z,83.30
2017-09-20T13:33:35.815Z,83.80
2017-09-20T13:36:03.355Z,83.80
2017-09-20T13:38:30.916Z,85.10
2017-09-20T13:40:58.590Z,80.00
2017-09-20T13:43:26.502Z,81.20
2017-09-20T13:45:54.047Z,81.10
2017-09-20T13:48:21.624Z,76.70
2017-09-20T13:50:49.583Z,77.20
2017-09-20T13:53:17.216Z,77.30
2017-09-20T13:55:44.795Z,78.80
2017-09-20T13:58:12.382Z,80.20
2017-09-20T14:00:39.932Z,78.40
2017-09-20T14:03:07.462Z,79.40
2017-09-20T14:05:34.991Z,78.40
2017-09-20T14:08:02.544Z,76.70
2017-09-20T14:10:30.062Z,78.80
2017-09-20T14:12:57.625Z,78.40
2017-09-20T14:15:27.074Z,77.00
2017-09-20T14:17:54.604Z,79.60
2017-09-20T14:20:22.528Z,75.80
2017-09-20T14:22:50.053Z,75.80
2017-09-20T14:25:17.610Z,77.80
2017-09-20T14:27:45.132Z,76.60
2017-09-20T14:30:12.695Z,76.90
2017-09-20T14:32:40.243Z,78.40
2017-09-20T14:35:07.772Z,79.40
2017-09-20T14:37:35.282Z,78.60
2017-09-20T14:40:02.819Z,77.20
2017-09-20T14:42:30.331Z,77.40
2017-09-20T14:44:58.835Z,76.70
2017-09-20T14:47:26.366Z,78.60
2017-09-20T14:49:53.912Z,78.60
2017-09-20T14:52:21.502Z,78.80
2017-09-20T14:54:49.048Z,80.30
2017-09-20T14:57:16.643Z,79.10
2017-09-20T14:59:44.176Z,80.30
2017-09-20T15:02:12.136Z,80.20
2017-09-20T15:04:40.058Z,79.10
2017-09-20T15:07:07.613Z,79.10
2017-09-20T15:09:42.381Z,79.90
2017-09-20T15:12:10.049Z,77.30
2017-09-20T15:14:37.574Z,78.30
2017-09-20T15:17:05.074Z,79.00
2017-09-20T15:19:33.001Z,79.30
2017-09-20T15:22:00.503Z,79.30
2017-09-20T15:24:28.077Z,78.20
2017-09-20T15:26:55.604Z,81.80
2017-09-20T15:29:23.151Z,78.70
2017-09-20T15:31:50.693Z,80.50
2017-09-20T15:34:18.222Z,78.90
2017-09-20T15:36:45.776Z,80.00
2017-09-20T15:39:13.351Z,77.60
2017-09-20T15:41:40.958Z,79.10
2017-09-20T15:44:08.558Z,80.00
2017-09-20T15:46:36.549Z,78.40
2017-09-20T15:49:04.133Z,78.40
2017-09-20T15:51:31.744Z,78.90
2017-09-20T15:53:59.295Z,81.00
2017-09-20T15:56:26.921Z,79.40
2017-09-20T15:58:55.372Z,79.60
2017-09-20T16:01:23.432Z,78.60
2017-09-20T16:03:52.643Z,79.00
2017-09-20T16:06:22.278Z,79.00
2017-09-20T16:08:52.029Z,78.90
2017-09-20T16:11:22.376Z,78.50
2017-09-20T16:13:50.399Z,82.40
2017-09-20T16:16:17.988Z,82.40
2017-09-20T16:18:45.629Z,81.60
2017-09-20T16:21:13.228Z,81.30
2017-09-20T16:23:40.825Z,82.20
2017-09-20T16:26:08.416Z,81.10
2017-09-20T16:28:36.045Z,84.40
2017-09-20T16:31:03.764Z,83.80
2017-09-20T16:33:31.446Z,84.30
2017-09-20T16:36:00.499Z,85.40
2017-09-20T16:38:30.600Z,84.40
2017-09-20T16:40:58.440Z,84.40
2017-09-20T16:43:26.458Z,85.60
2017-09-20T16:45:59.872Z,85.60
2017-09-20T16:48:31.207Z,86.00
2017-09-20T16:51:05.628Z,87.30
2017-09-20T16:53:34.014Z,87.30
2017-09-20T16:56:02.328Z,87.70
2017-09-20T16:58:30.440Z,88.40
2017-09-20T17:01:05.713Z,88.40
2017-09-20T17:03:34.428Z,88.00
2017-09-20T17:06:02.200Z,87.90
2017-09-20T17:08:31.420Z,88.30
2017-09-20T17:11:01.222Z,88.50
2017-09-20T17:13:38.806Z,89.20
2017-09-20T17:16:07.220Z,89.40
2017-09-20T17:18:35.702Z,89.70
2017-09-20T17:21:04.300Z,89.70
2017-09-20T17:23:32.717Z,89.80
2017-09-20T17:26:01.261Z,89.80
2017-09-20T17:28:30.681Z,90.10
2017-09-20T17:31:02.698Z,90.50
2017-09-20T17:33:30.445Z,90.50
2017-09-20T17:36:05.487Z,90.80
2017-09-20T17:38:42.430Z,90.90
2017-09-20T17:41:14.845Z,91.20
2017-09-20T17:43:52.261Z,91.10
2017-09-20T17:46:28.241Z,90.60
2017-09-20T17:49:07.083Z,90.70
2017-09-20T17:51:37.489Z,90.70
2017-09-20T17:54:05.843Z,91.00
2017-09-20T17:56:33.861Z,90.60
2017-09-20T17:59:01.403Z,90.60
2017-09-20T18:01:28.976Z,91.00
2017-09-20T18:03:56.498Z,91.10
2017-09-20T18:06:29.607Z,90.90
2017-09-20T18:08:57.162Z,90.60
2017-09-20T18:11:24.698Z,91.10
2017-09-20T18:13:52.243Z,90.70
2017-09-20T18:16:19.880Z,90.20
2017-09-20T18:18:48.402Z,90.60
2017-09-20T18:21:16.003Z,90.90
2017-09-20T18:23:43.582Z,91.50
2017-09-20T18:26:11.127Z,91.30
2017-09-20T18:28:40.080Z,91.50
2017-09-20T18:31:08.139Z,91.00
2017-09-20T18:33:35.683Z,91.00
2017-09-20T18:36:03.318Z,91.40
2017-09-20T18:38:31.071Z,91.30
2017-09-20T18:40:59.125Z,91.30
2017-09-20T18:43:27.460Z,91.60
2017-09-20T18:45:55.801Z,91.20
2017-09-20T18:48:23.424Z,91.20
2017-09-20T18:50:51.380Z,91.10
2017-09-20T18:53:20.252Z,91.50
2017-09-20T18:55:48.205Z,91.60
2017-09-20T18:58:16.162Z,91.10
2017-09-20T19:00:44.093Z,91.10
2017-09-20T19:03:11.635Z,91.10
2017-09-20T19:05:47.348Z,91.70
2017-09-20T19:08:14.882Z,91.60
2017-09-20T19:10:42.476Z,91.60
2017-09-20T19:13:10.451Z,91.80
2017-09-20T19:15:37.996Z,91.80
2017-09-20T19:18:05.584Z,92.40
2017-09-20T19:20:33.185Z,92.30
2017-09-20T19:23:00.824Z,92.50
2017-09-20T19:25:28.653Z,91.90
2017-09-20T19:27:56.672Z,91.40
2017-09-20T19:30:24.250Z,91.40
2017-09-20T19:32:51.884Z,91.60
2017-09-20T19:35:19.527Z,91.70
2017-09-20T19:37:47.113Z,92.10
2017-09-20T19:40:14.707Z,92.30
2017-09-20T19:42:42.261Z,92.20
2017-09-20T19:45:09.893Z,92.20
2017-09-20T19:47:37.489Z,92.20
2017-09-20T19:50:05.079Z,92.30
2017-09-20T19:52:32.612Z,92.00
2017-09-20T19:55:00.236Z,92.50
2017-09-20T19:57:27.817Z,91.80
2017-09-20T19:59:55.414Z,91.90
2017-09-20T20:02:23.354Z,92.60
2017-09-20T20:04:50.899Z,92.60
2017-09-20T20:07:18.571Z,92.60
2017-09-20T20:09:46.242Z,92.90
2017-09-20T20:12:13.882Z,94.00
2017-09-20T20:14:41.504Z,94.00
2017-09-20T20:17:09.156Z,92.20
2017-09-20T20:19:36.706Z,92.00
2017-09-20T20:22:06.008Z,92.80
2017-09-20T20:24:33.625Z,93.10
2017-09-20T20:27:01.236Z,93.00
2017-09-20T20:29:29.854Z,92.80
2017-09-20T20:31:57.457Z,92.40
2017-09-20T20:34:25.056Z,92.90
2017-09-20T20:36:52.594Z,93.20
2017-09-20T20:39:20.178Z,92.30
2017-09-20T20:41:47.746Z,92.30
2017-09-20T20:44:15.329Z,92.50
2017-09-20T20:46:42.872Z,93.20
2017-09-20T20:49:10.432Z,93.10
2017-09-20T20:51:37.958Z,92.70
2017-09-20T20:54:05.504Z,92.80
2017-09-20T20:56:33.037Z,93.50
2017-09-20T20:59:00.596Z,93.30
2017-09-20T21:01:28.118Z,93.10
2017-09-20T21:03:56.029Z,92.60
2017-09-20T21:06:23.580Z,92.60
2017-09-20T21:08:51.093Z,93.00
2017-09-20T21:11:18.624Z,93.00
2017-09-20T21:13:46.166Z,93.00
2017-09-20T21:16:13.692Z,93.00
2017-09-20T21:18:41.629Z,93.10
2017-09-20T21:21:09.142Z,93.10
2017-09-20T21:23:36.682Z,93.30
2017-09-20T21:26:04.203Z,93.40
2017-09-20T21:28:31.746Z,93.40
2017-09-20T21:30:59.245Z,93.10
2017-09-20T21:33:26.772Z,93.00
2017-09-20T21:35:54.286Z,93.20
2017-09-20T21:38:21.825Z,93.30
2017-09-20T21:40:49.325Z,93.50
2017-09-20T21:43:16.839Z,93.50
2017-09-20T21:45:44.358Z,93.40
2017-09-20T21:48:11.853Z,93.30
2017-09-20T21:50:39.370Z,93.30
2017-09-20T21:53:06.869Z,93.50
2017-09-20T21:55:34.402Z,93.60
2017-09-20T21:58:01.918Z,93.50
2017-09-20T22:00:29.492Z,93.40
2017-09-20T22:02:57.034Z,92.90
2017-09-20T22:05:24.541Z,92.80
2017-09-20T22:07:52.057Z,92.80
2017-09-20T22:10:19.577Z,93.20
2017-09-20T22:12:47.102Z,93.40
2017-09-20T22:15:26.906Z,93.20
2017-09-20T22:18:06.202Z,93.20
2017-09-20T22:20:45.636Z,93.60
2017-09-20T22:23:25.187Z,93.80
2017-09-20T22:26:04.502Z,93.50
2017-09-20T22:28:32.022Z,93.50
2017-09-20T22:30:59.534Z,93.70
2017-09-20T22:33:27.051Z,93.40
2017-09-20T22:35:54.949Z,93.70
2017-09-20T22:38:22.470Z,93.70
2017-09-20T22:40:49.979Z,93.70
2017-09-20T22:43:17.910Z,93.80
2017-09-20T22:45:45.427Z,93.80
2017-09-20T22:48:12.937Z,93.60
2017-09-20T22:50:40.464Z,93.50
2017-09-20T22:53:08.379Z,93.40
2017-09-20T22:55:35.961Z,93.40
2017-09-20T22:58:03.891Z,93.80
2017-09-20T23:00:31.419Z,93.80
2017-09-20T23:02:58.924Z,93.80
2017-09-20T23:05:26.455Z,94.00
2017-09-20T23:07:54.357Z,93.50
2017-09-20T23:10:21.910Z,93.50
2017-09-20T23:12:49.405Z,93.70
2017-09-20T23:15:16.922Z,93.80
2017-09-20T23:17:44.438Z,93.90
2017-09-20T23:20:11.953Z,94.00
2017-09-20T23:22:39.477Z,93.90
2017-09-20T23:25:07.001Z,93.70
2017-09-20T23:27:34.922Z,94.00
2017-09-20T23:30:02.478Z,94.00
2017-09-20T23:32:30.027Z,94.00
2017-09-20T23:34:57.535Z,94.10
2017-09-20T23:37:25.034Z,93.80
2017-09-20T23:39:52.946Z,93.80
2017-09-20T23:42:20.457Z,93.80
2017-09-20T23:44:47.981Z,94.00
2017-09-20T23:47:15.499Z,94.00
2017-09-20T23:49:43.018Z,94.00
2017-09-20T23:52:10.514Z,93.70
2017-09-20T23:54:38.044Z,94.10
2017-09-20T23:57:05.934Z,94.30
2017-09-20T23:59:33.437Z,94.30
